メインページ
METAR-TAF:

METAR-TAF

空港 :

イーラーム, イラン

緯度: 33-35-09N, 経度: 046-24-20E, 海抜: 1334m

現時点の気象観測

当レポートは1時間6分前の01:00(UTC)に作成
東/南東の風 4kt
気温 17°C
湿度 34%
気圧 1019 hPa
視程10km以上
1,500メートル以下は雲なし、積乱雲なし

METAR: OICI 250100Z 11004KT CAVOK 17/01 Q1019

時間: 05:36 (02:06 UTC)

予報

当レポートは3時間6分前の23:00(UTC)に作成
予報は25日の 00時(UTC)から 26日の 06時(UTC)まで有効
西の風 8kt
視程: 7000m
25日の 10時(UTC)から 25日の 16時(UTC)まで一時的に
西の風 16kt

TAF: OICI 242300Z 2500/2606 27004MPS 7000 NSC TEMPO 2510/2516 28008MPS

4,000以上の空港の気象観測と天気予報(METAR報とTAF報)

利用可能な観測所は地図上に黄色い丸と赤い丸で示す。

丸の上にカーソルを重ねると観測所名を参照できる。

次にクリックすると気象観測と天気予報を参照できる。

マップの切り替え:黒色「×」印の緑ボタンをクリックして拡大、「-」印の緑ボタンをクリックして縮小、緑色の三角印をクリックして隣りの地図に切り替え


METAR-TAF: